Araraquara, Brazil
Current Conditions -  °F | °C
As of 6:00 PM on Wednesday 28 Jan 2015 (Local Time) from SBRP Reporting Station
Few Clouds Few Clouds  
Wind Chill: 86°   Ceiling: Unl
Heat Index: 88°   Visibility: 6mi
Dew Point: 66°   Wind: 5mph
Humidity: 51%   Direction: 80°E
Pressure: 29.88"   Gusts: NA
Location:  21.75°S, 48.13°W
Report Text: SBRP 282000Z 08004KT 9999 FEW030 30/19 Q1012
Loading
Personal Weather Stations






























Interactive Weather Map New forecast layout! Learn more

10-Day Weather Forecast

Advertisements
Track Severe Weather on mobile